createdAt,value
2023-01-20T00:01:49.046Z,17.95
2023-01-20T00:04:20.542Z,15.93
2023-01-20T00:06:49.081Z,19.85
2023-01-20T00:09:18.991Z,19.92
2023-01-20T00:11:47.515Z,20.48
2023-01-20T00:14:16.414Z,21.67
2023-01-20T00:16:53.604Z,21.48
2023-01-20T00:19:22.151Z,21.63
2023-01-20T00:21:50.679Z,22.20
2023-01-20T00:24:24.188Z,21.75
2023-01-20T00:26:52.604Z,23.88
2023-01-20T00:29:21.183Z,25.83
2023-01-20T00:31:49.492Z,24.08
2023-01-20T00:34:18.207Z,24.77
2023-01-20T00:36:46.473Z,24.73
2023-01-20T00:39:15.069Z,20.90
2023-01-20T00:41:43.375Z,24.25
2023-01-20T00:44:24.143Z,20.52
2023-01-20T00:46:52.428Z,23.58
2023-01-20T00:49:21.110Z,23.90
2023-01-20T00:51:49.379Z,24.02
2023-01-20T00:54:18.054Z,23.45
2023-01-20T00:56:46.307Z,25.45
2023-01-20T00:59:14.902Z,26.77
2023-01-20T01:01:43.331Z,26.48
2023-01-20T01:04:11.922Z,26.63
2023-01-20T01:06:41.175Z,26.45
2023-01-20T01:09:10.145Z,26.27
2023-01-20T01:11:38.505Z,24.70
2023-01-20T01:14:07.414Z,25.25
2023-01-20T01:16:36.364Z,24.70
2023-01-20T01:19:05.080Z,24.92
2023-01-20T01:21:33.357Z,27.23
2023-01-20T01:24:01.916Z,26.00
2023-01-20T01:26:30.308Z,24.83
2023-01-20T01:28:59.292Z,26.42
2023-01-20T01:31:27.657Z,25.23
2023-01-20T01:33:56.324Z,24.33
2023-01-20T01:36:24.695Z,26.60
2023-01-20T01:38:57.693Z,27.73
2023-01-20T01:41:27.691Z,28.88
2023-01-20T01:44:12.374Z,26.92
2023-01-20T01:46:42.191Z,26.15
2023-01-20T01:49:28.856Z,25.38
2023-01-20T01:52:03.040Z,24.95
2023-01-20T01:54:35.234Z,24.95
2023-01-20T01:57:05.497Z,22.70
2023-01-20T01:59:35.305Z,23.90
2023-01-20T02:02:04.474Z,22.85
2023-01-20T02:04:35.191Z,25.35
2023-01-20T02:07:12.021Z,24.30
2023-01-20T02:09:40.638Z,24.13
2023-01-20T02:12:13.918Z,21.65
2023-01-20T02:15:09.513Z,22.85
2023-01-20T02:18:33.027Z,23.17
2023-01-20T02:21:38.312Z,23.05
2023-01-20T02:24:16.060Z,22.23
2023-01-20T02:26:53.943Z,20.00
2023-01-20T02:29:40.802Z,20.98
2023-01-20T02:32:21.021Z,23.80
2023-01-20T02:35:08.452Z,22.90
2023-01-20T02:38:04.810Z,22.45
2023-01-20T02:40:50.358Z,20.65
2023-01-20T02:43:46.972Z,17.73
2023-01-20T02:47:10.761Z,22.52
2023-01-20T02:49:56.320Z,21.38
2023-01-20T02:52:29.260Z,24.20
2023-01-20T02:55:02.073Z,24.15
2023-01-20T02:57:35.979Z,25.23
2023-01-20T03:00:12.533Z,23.77
2023-01-20T03:02:44.433Z,24.83
2023-01-20T03:05:18.905Z,23.52
2023-01-20T03:07:49.775Z,23.70
2023-01-20T03:10:22.962Z,23.05
2023-01-20T03:12:57.379Z,23.95
2023-01-20T03:15:35.715Z,22.08
2023-01-20T03:18:04.034Z,21.63
2023-01-20T03:20:32.618Z,22.23
2023-01-20T03:23:00.896Z,20.70
2023-01-20T03:25:29.623Z,22.10
2023-01-20T03:27:57.998Z,22.88
2023-01-20T03:30:26.865Z,23.65
2023-01-20T03:32:55.373Z,23.27
2023-01-20T03:35:24.614Z,24.95
2023-01-20T03:37:54.591Z,25.08
2023-01-20T03:40:28.574Z,24.00
2023-01-20T03:43:06.511Z,20.52
2023-01-20T03:45:43.147Z,23.20
2023-01-20T03:48:21.377Z,22.17
2023-01-20T03:51:27.159Z,23.42
2023-01-20T03:54:02.021Z,24.33
2023-01-20T03:56:38.395Z,24.35
2023-01-20T03:59:09.495Z,24.05
2023-01-20T04:01:41.988Z,24.40
2023-01-20T04:04:15.510Z,23.42
2023-01-20T04:06:45.772Z,23.38
2023-01-20T04:09:26.429Z,25.50
2023-01-20T04:11:56.474Z,25.90
2023-01-20T04:14:26.388Z,22.25
2023-01-20T04:16:59.434Z,21.10
2023-01-20T04:19:31.984Z,22.38
2023-01-20T04:22:28.858Z,23.60
2023-01-20T04:25:08.502Z,24.65
2023-01-20T04:27:39.291Z,22.98
2023-01-20T04:30:08.437Z,21.60
2023-01-20T04:32:36.974Z,24.35
2023-01-20T04:35:07.060Z,22.02
2023-01-20T04:37:38.222Z,24.15
2023-01-20T04:40:07.151Z,23.13
2023-01-20T04:42:35.886Z,23.38
2023-01-20T04:45:29.200Z,22.95
2023-01-20T04:47:57.844Z,24.25
2023-01-20T04:50:26.269Z,22.63
2023-01-20T04:52:55.937Z,22.90
2023-01-20T04:55:26.511Z,21.60
2023-01-20T04:57:55.101Z,23.25
2023-01-20T05:00:23.553Z,23.75
2023-01-20T05:02:52.309Z,23.70
2023-01-20T05:05:20.801Z,19.27
2023-01-20T05:07:53.534Z,24.80
2023-01-20T05:10:22.107Z,22.08
2023-01-20T05:12:50.697Z,24.02
2023-01-20T05:15:19.089Z,24.70
2023-01-20T05:17:47.653Z,26.52
2023-01-20T05:20:16.221Z,24.98
2023-01-20T05:22:45.010Z,24.95
2023-01-20T05:25:13.577Z,24.52
2023-01-20T05:27:45.163Z,25.95
2023-01-20T05:30:13.792Z,25.73
2023-01-20T05:32:42.622Z,25.88
2023-01-20T05:35:10.901Z,25.35
2023-01-20T05:37:39.448Z,26.95
2023-01-20T05:40:08.730Z,24.70
2023-01-20T05:42:37.286Z,26.85
2023-01-20T05:45:06.826Z,26.85
2023-01-20T05:47:35.457Z,26.27
2023-01-20T05:50:05.044Z,25.35
2023-01-20T05:52:33.685Z,28.17
2023-01-20T05:55:02.080Z,25.70
2023-01-20T05:57:30.864Z,26.17
2023-01-20T05:59:59.542Z,26.90
2023-01-20T06:02:31.592Z,26.75
2023-01-20T06:07:32.240Z,25.98
2023-01-20T06:10:00.597Z,28.15
2023-01-20T06:12:29.349Z,25.40
2023-01-20T06:14:57.792Z,23.73
2023-01-20T06:17:32.167Z,23.23
2023-01-20T06:20:01.376Z,24.75
2023-01-20T06:22:30.822Z,25.30
2023-01-20T06:24:59.169Z,24.63
2023-01-20T06:27:28.208Z,25.38
2023-01-20T06:29:56.549Z,25.10
2023-01-20T06:32:25.460Z,24.23
2023-01-20T06:34:53.854Z,23.25
2023-01-20T06:37:24.793Z,25.15
2023-01-20T06:39:53.161Z,22.80
2023-01-20T06:42:21.796Z,24.77
2023-01-20T06:44:50.283Z,23.25
2023-01-20T06:47:18.955Z,23.60
2023-01-20T06:49:47.430Z,24.45
2023-01-20T06:52:16.215Z,24.13
2023-01-20T06:54:44.737Z,26.05
2023-01-20T06:57:13.445Z,25.67
2023-01-20T06:59:41.774Z,25.58
2023-01-20T07:02:13.618Z,26.45
2023-01-20T07:04:42.747Z,27.38
2023-01-20T07:07:12.948Z,28.17
2023-01-20T07:09:41.261Z,27.70
2023-01-20T07:12:09.930Z,29.23
2023-01-20T07:14:38.153Z,27.60
2023-01-20T07:17:11.967Z,26.67
2023-01-20T07:19:40.371Z,27.35
2023-01-20T07:22:09.305Z,26.25
2023-01-20T07:24:37.695Z,26.77
2023-01-20T07:27:06.320Z,26.63
2023-01-20T07:29:34.864Z,26.73
2023-01-20T07:32:03.993Z,27.90
2023-01-20T07:34:32.371Z,37.55
2023-01-20T07:37:03.743Z,50.97
2023-01-20T07:39:32.105Z,34.77
2023-01-20T07:42:00.679Z,29.83
2023-01-20T07:44:28.957Z,31.30
2023-01-20T07:46:58.824Z,30.13
2023-01-20T07:49:27.405Z,31.33
2023-01-20T07:51:56.038Z,25.98
2023-01-20T07:54:24.263Z,27.45
2023-01-20T07:56:53.100Z,28.80
2023-01-20T07:59:21.439Z,23.77
2023-01-20T08:01:50.017Z,24.40
2023-01-20T08:04:18.579Z,24.33
2023-01-20T08:06:48.431Z,24.50
2023-01-20T08:09:16.771Z,24.33
2023-01-20T08:11:45.610Z,24.77
2023-01-20T08:14:14.123Z,24.85
2023-01-20T08:16:42.896Z,24.13
2023-01-20T08:19:11.392Z,25.55
2023-01-20T08:21:40.061Z,25.20
2023-01-20T08:24:10.976Z,25.52
2023-01-20T08:26:39.591Z,25.88
2023-01-20T08:29:10.393Z,36.95
2023-01-20T08:31:39.451Z,37.17
2023-01-20T08:34:08.092Z,34.83
2023-01-20T08:36:39.084Z,28.70
2023-01-20T08:39:10.850Z,26.25
2023-01-20T08:41:41.859Z,27.35
2023-01-20T08:44:11.520Z,28.48
2023-01-20T08:46:41.992Z,26.98
2023-01-20T08:49:14.853Z,27.80
2023-01-20T08:51:45.186Z,27.70
2023-01-20T08:54:14.805Z,28.85
2023-01-20T08:56:43.508Z,27.50
2023-01-20T08:59:12.205Z,29.75
2023-01-20T09:01:42.291Z,27.45
2023-01-20T09:04:11.205Z,30.58
2023-01-20T09:06:46.121Z,107.13
2023-01-20T09:09:16.139Z,65.93
2023-01-20T09:11:50.859Z,35.60
2023-01-20T09:14:24.524Z,40.50
2023-01-20T09:16:53.646Z,28.05
2023-01-20T09:19:22.186Z,28.77
2023-01-20T09:21:51.046Z,43.80
2023-01-20T09:24:19.326Z,26.70
2023-01-20T09:26:49.145Z,26.50
2023-01-20T09:29:19.479Z,27.45
2023-01-20T09:31:53.523Z,26.75
2023-01-20T09:34:22.012Z,26.35
2023-01-20T09:36:57.281Z,24.80
2023-01-20T09:39:44.013Z,23.35
2023-01-20T09:43:08.766Z,23.70
2023-01-20T09:45:45.513Z,22.73
2023-01-20T09:49:06.670Z,23.05
2023-01-20T09:52:04.590Z,24.30
2023-01-20T09:54:42.096Z,23.30
2023-01-20T09:57:13.304Z,24.63
2023-01-20T09:59:55.820Z,21.08
2023-01-20T10:02:30.407Z,26.05
2023-01-20T10:05:24.733Z,22.80
2023-01-20T10:07:58.349Z,23.33
2023-01-20T10:10:33.236Z,22.98
2023-01-20T10:13:16.452Z,26.35
2023-01-20T10:15:53.571Z,27.13
2023-01-20T10:18:30.031Z,28.75
2023-01-20T10:21:15.479Z,25.50
2023-01-20T10:23:54.092Z,22.35
2023-01-20T10:26:52.473Z,22.30
2023-01-20T10:29:32.469Z,24.55
2023-01-20T10:32:02.878Z,24.38
2023-01-20T10:34:40.853Z,28.33
2023-01-20T10:37:11.279Z,26.40
2023-01-20T10:39:57.981Z,23.67
2023-01-20T10:42:28.778Z,25.67
2023-01-20T10:44:58.735Z,31.67
2023-01-20T10:48:02.682Z,27.88
2023-01-20T10:51:05.531Z,23.52
2023-01-20T10:53:55.889Z,23.95
2023-01-20T10:56:36.352Z,24.50
2023-01-20T10:59:15.772Z,20.80
2023-01-20T11:02:06.238Z,19.67
2023-01-20T11:04:41.226Z,19.15
2023-01-20T11:07:16.432Z,19.58
2023-01-20T11:09:47.742Z,20.52
2023-01-20T11:12:26.806Z,19.70
2023-01-20T11:14:59.850Z,19.90
2023-01-20T11:17:31.247Z,18.05
2023-01-20T11:20:08.746Z,19.05
2023-01-20T11:22:39.416Z,19.17
2023-01-20T11:25:26.793Z,20.13
2023-01-20T11:27:58.319Z,19.40
2023-01-20T11:30:30.983Z,19.85
2023-01-20T11:35:41.515Z,18.85
2023-01-20T11:38:26.448Z,19.23
2023-01-20T11:40:57.483Z,20.23
2023-01-20T11:43:31.274Z,19.85
2023-01-20T11:46:22.908Z,19.40
2023-01-20T11:49:12.504Z,19.63
2023-01-20T11:51:53.657Z,19.63
2023-01-20T11:54:25.848Z,22.65
2023-01-20T11:56:59.596Z,23.55
2023-01-20T11:59:35.170Z,18.88
2023-01-20T12:02:09.850Z,18.17
2023-01-20T12:04:59.786Z,19.13
2023-01-20T12:07:47.569Z,21.25
2023-01-20T12:10:38.201Z,20.63
2023-01-20T12:13:18.021Z,18.13
2023-01-20T12:15:54.809Z,20.20
2023-01-20T12:18:35.334Z,20.67
2023-01-20T12:21:19.740Z,19.10
2023-01-20T12:23:57.140Z,18.60
2023-01-20T12:26:29.036Z,20.48
2023-01-20T12:29:23.791Z,20.23
2023-01-20T12:31:54.565Z,21.00
2023-01-20T12:34:32.686Z,20.50
2023-01-20T12:37:06.964Z,20.85
2023-01-20T12:39:53.525Z,20.58
2023-01-20T12:42:46.702Z,19.15
2023-01-20T12:45:49.553Z,22.08
2023-01-20T12:52:04.356Z,23.20
2023-01-20T12:54:48.352Z,20.83
2023-01-20T12:57:23.840Z,21.83
2023-01-20T13:00:15.386Z,20.58
2023-01-20T13:03:02.852Z,21.05
2023-01-20T13:06:01.301Z,20.02
2023-01-20T13:08:50.657Z,20.38
2023-01-20T13:11:48.504Z,20.27
2023-01-20T13:14:43.221Z,23.13
2023-01-20T13:17:39.075Z,22.05
2023-01-20T13:20:22.097Z,21.77
2023-01-20T13:22:52.082Z,23.38
2023-01-20T13:25:22.267Z,25.85
2023-01-20T13:27:54.458Z,23.20
2023-01-20T13:30:47.920Z,24.23
2023-01-20T13:33:42.229Z,22.90
2023-01-20T13:36:20.150Z,22.63
2023-01-20T13:39:02.975Z,23.98
2023-01-20T13:41:51.522Z,21.17
2023-01-20T13:44:37.052Z,21.33
2023-01-20T13:47:10.805Z,20.98
2023-01-20T13:49:42.185Z,21.40
2023-01-20T13:52:13.568Z,21.92
2023-01-20T13:54:46.559Z,24.17
2023-01-20T13:57:28.106Z,22.98
2023-01-20T13:59:56.935Z,22.15
2023-01-20T14:02:29.161Z,22.48
2023-01-20T14:04:58.953Z,23.38
2023-01-20T14:07:33.208Z,22.45
2023-01-20T14:14:59.070Z,21.45
2023-01-20T14:17:28.176Z,23.02
2023-01-20T14:19:56.554Z,22.67
2023-01-20T14:22:51.294Z,22.15
2023-01-20T14:25:26.857Z,24.05
2023-01-20T14:27:56.580Z,23.50
2023-01-20T14:30:30.205Z,21.63
2023-01-20T14:33:08.624Z,21.20
2023-01-20T14:35:37.067Z,23.40
2023-01-20T14:38:17.623Z,23.20
2023-01-20T14:40:51.984Z,23.05
2023-01-20T14:43:27.162Z,21.75
2023-01-20T14:45:55.906Z,21.50
2023-01-20T14:48:34.379Z,22.52
2023-01-20T14:51:20.732Z,22.95
2023-01-20T14:54:49.700Z,23.25
2023-01-20T14:57:31.209Z,25.38
2023-01-20T15:00:24.814Z,26.13
2023-01-20T15:03:14.348Z,33.28
2023-01-20T15:05:54.055Z,26.90
2023-01-20T15:08:32.829Z,26.98
2023-01-20T15:11:40.325Z,25.52
2023-01-20T15:14:13.241Z,27.88
2023-01-20T15:16:49.479Z,26.00
2023-01-20T15:19:35.430Z,25.52
2023-01-20T15:22:44.924Z,27.95
2023-01-20T15:25:17.038Z,30.60
2023-01-20T15:27:56.448Z,33.08
2023-01-20T15:30:34.092Z,31.02
2023-01-20T15:33:14.872Z,32.35
2023-01-20T15:36:17.486Z,31.52
2023-01-20T15:38:46.302Z,35.85
2023-01-20T15:41:18.379Z,38.97
2023-01-20T15:43:55.248Z,32.15
2023-01-20T15:46:25.256Z,32.05
2023-01-20T15:48:54.185Z,33.63
2023-01-20T15:51:24.401Z,34.75
2023-01-20T15:54:18.373Z,35.97
2023-01-20T15:56:57.082Z,34.28
2023-01-20T16:00:07.738Z,36.72
2023-01-20T16:03:12.654Z,38.70
2023-01-20T16:05:44.358Z,46.33
2023-01-20T16:08:27.985Z,43.33
2023-01-20T16:11:20.524Z,40.78
2023-01-20T16:13:58.101Z,43.13
2023-01-20T16:16:30.044Z,38.83
2023-01-20T16:19:24.162Z,39.90
2023-01-20T16:22:19.173Z,41.42
2023-01-20T16:24:49.292Z,40.97
2023-01-20T16:27:39.719Z,39.83
2023-01-20T16:30:13.691Z,40.50
2023-01-20T16:32:46.223Z,42.40
2023-01-20T16:38:40.634Z,34.17
2023-01-20T16:41:23.957Z,38.10
2023-01-20T16:43:55.719Z,35.25
2023-01-20T16:46:35.627Z,34.67
2023-01-20T16:49:07.927Z,34.13
2023-01-20T16:53:12.113Z,37.15
2023-01-20T16:59:16.049Z,33.60
2023-01-20T17:09:40.413Z,32.03
2023-01-20T17:14:35.976Z,35.67
2023-01-20T17:20:21.632Z,31.75
2023-01-20T17:23:05.598Z,34.10
2023-01-20T17:25:37.767Z,35.95
2023-01-20T17:28:08.979Z,35.25
2023-01-20T17:31:11.844Z,36.85
2023-01-20T17:34:07.960Z,38.50
2023-01-20T17:37:08.215Z,33.63
2023-01-20T17:39:39.517Z,34.83
2023-01-20T17:42:35.194Z,44.53
2023-01-20T17:45:06.042Z,40.20
2023-01-20T17:47:59.590Z,34.22
2023-01-20T17:50:32.258Z,36.83
2023-01-20T17:53:33.249Z,32.28
2023-01-20T17:56:12.195Z,33.28
2023-01-20T17:58:43.655Z,35.28
2023-01-20T18:01:18.540Z,33.35
2023-01-20T18:04:21.652Z,33.63
2023-01-20T18:06:52.921Z,32.90
2023-01-20T18:09:21.238Z,33.13
2023-01-20T18:11:50.044Z,36.90
2023-01-20T18:14:19.583Z,34.30
2023-01-20T18:17:01.547Z,34.92
2023-01-20T18:19:30.499Z,37.70
2023-01-20T18:22:05.896Z,39.05
2023-01-20T18:24:52.024Z,33.05
2023-01-20T18:27:58.642Z,34.90
2023-01-20T18:39:27.540Z,37.25
2023-01-20T18:42:03.786Z,44.30
2023-01-20T18:44:35.443Z,43.17
2023-01-20T18:47:03.805Z,37.67
2023-01-20T18:49:46.895Z,35.65
2023-01-20T18:52:29.962Z,34.22
2023-01-20T18:55:01.087Z,33.95
2023-01-20T18:57:34.791Z,32.13
2023-01-20T19:00:04.913Z,32.92
2023-01-20T19:02:34.319Z,33.92
2023-01-20T19:05:04.477Z,33.92
2023-01-20T19:07:36.559Z,38.22
2023-01-20T19:10:07.178Z,35.10
2023-01-20T19:12:35.629Z,36.35
2023-01-20T19:19:19.912Z,30.90
2023-01-20T19:21:53.869Z,32.00
2023-01-20T19:24:22.209Z,35.90
2023-01-20T19:27:01.583Z,34.35
2023-01-20T19:29:51.237Z,30.27
2023-01-20T19:32:22.557Z,33.65
2023-01-20T19:34:50.875Z,36.30
2023-01-20T19:37:23.463Z,40.15
2023-01-20T19:39:51.760Z,60.88
2023-01-20T19:42:20.370Z,34.85
2023-01-20T19:44:48.667Z,38.22
2023-01-20T19:47:17.313Z,41.90
2023-01-20T19:49:45.607Z,34.53
2023-01-20T19:52:17.510Z,43.72
2023-01-20T19:54:50.345Z,36.70
2023-01-20T19:57:20.312Z,33.17
2023-01-20T19:59:48.946Z,35.45
2023-01-20T20:02:17.841Z,31.95
2023-01-20T20:05:01.114Z,30.90
2023-01-20T20:08:03.475Z,28.35
2023-01-20T20:10:42.395Z,25.27
2023-01-20T20:13:11.095Z,27.45
2023-01-20T20:15:39.440Z,27.73
2023-01-20T20:18:08.057Z,27.05
2023-01-20T20:20:36.647Z,29.58
2023-01-20T20:23:05.268Z,27.05
2023-01-20T20:25:34.305Z,26.55
2023-01-20T20:28:06.271Z,30.90
2023-01-20T20:30:37.075Z,31.58
2023-01-20T20:33:05.881Z,27.92
2023-01-20T20:35:41.627Z,26.73
2023-01-20T20:38:13.014Z,27.50
2023-01-20T20:40:41.882Z,28.48
2023-01-20T20:43:10.727Z,30.33
2023-01-20T20:45:39.199Z,28.20
2023-01-20T20:48:10.024Z,27.90
2023-01-20T20:50:43.623Z,29.30
2023-01-20T20:53:18.908Z,30.75
2023-01-20T20:56:05.514Z,27.48
2023-01-20T20:58:36.662Z,28.40
2023-01-20T21:01:07.244Z,30.50
2023-01-20T21:04:07.270Z,29.15
2023-01-20T21:06:35.826Z,37.47
2023-01-20T21:09:13.247Z,32.10
2023-01-20T21:11:46.357Z,29.23
2023-01-20T21:14:24.613Z,29.73
2023-01-20T21:16:58.881Z,27.58
2023-01-20T21:19:27.779Z,27.48
2023-01-20T21:21:57.531Z,27.33
2023-01-20T21:24:37.598Z,27.73
2023-01-20T21:27:19.286Z,25.02
2023-01-20T21:29:48.225Z,25.92
2023-01-20T21:32:18.912Z,24.33
2023-01-20T21:34:47.650Z,24.48
2023-01-20T21:37:21.153Z,25.55
2023-01-20T21:39:51.745Z,25.08
2023-01-20T21:42:23.348Z,24.50
2023-01-20T21:44:52.299Z,23.83
2023-01-20T21:47:20.777Z,23.85
2023-01-20T21:50:07.906Z,24.75
2023-01-20T21:52:42.230Z,22.50
2023-01-20T21:55:20.219Z,23.75
2023-01-20T21:57:51.274Z,23.05
2023-01-20T22:00:20.610Z,23.98
2023-01-20T22:02:49.125Z,22.95
2023-01-20T22:05:18.572Z,23.70
2023-01-20T22:07:48.162Z,23.55
2023-01-20T22:10:17.278Z,22.75
2023-01-20T22:12:45.840Z,22.48
2023-01-20T22:15:14.544Z,23.13
2023-01-20T22:17:42.983Z,22.58
2023-01-20T22:20:11.773Z,24.50
2023-01-20T22:22:40.256Z,22.27
2023-01-20T22:25:12.707Z,22.85
2023-01-20T22:30:10.005Z,20.23
2023-01-20T22:32:38.512Z,27.15
2023-01-20T22:35:07.363Z,20.83
2023-01-20T22:37:35.609Z,24.25
2023-01-20T22:40:05.666Z,25.48
2023-01-20T22:42:34.656Z,20.95
2023-01-20T22:45:03.932Z,22.65
2023-01-20T22:47:32.302Z,21.05
2023-01-20T22:50:00.827Z,24.27
2023-01-20T22:52:29.061Z,23.83
2023-01-20T22:54:57.814Z,21.05
2023-01-20T22:57:26.331Z,21.60
2023-01-20T22:59:54.953Z,22.27
2023-01-20T23:02:23.259Z,20.60
2023-01-20T23:04:52.552Z,23.55
2023-01-20T23:07:20.774Z,26.35
2023-01-20T23:09:50.199Z,19.25
2023-01-20T23:12:18.732Z,23.17
2023-01-20T23:14:59.126Z,18.83
2023-01-20T23:17:30.128Z,22.17
2023-01-20T23:19:58.777Z,22.40
2023-01-20T23:22:27.162Z,22.10
2023-01-20T23:24:56.098Z,19.73
2023-01-20T23:27:24.500Z,22.88
2023-01-20T23:29:55.879Z,21.48
2023-01-20T23:32:24.372Z,18.75
2023-01-20T23:34:52.495Z,17.65
2023-01-20T23:37:24.156Z,19.95
2023-01-20T23:39:59.901Z,19.05
2023-01-20T23:42:28.564Z,17.60
2023-01-20T23:44:56.970Z,20.20
2023-01-20T23:47:25.536Z,21.25
2023-01-20T23:49:54.007Z,21.33
2023-01-20T23:52:25.063Z,17.17
2023-01-20T23:54:53.631Z,20.05
2023-01-20T23:57:22.316Z,15.60
2023-01-20T23:59:50.695Z,24.30
